createdAt,value
2019-03-13T00:01:34.309Z,53.13
2019-03-13T00:04:05.283Z,39.23
2019-03-13T00:06:35.760Z,50.47
2019-03-13T00:09:10.212Z,43.37
2019-03-13T00:11:40.788Z,52.97
2019-03-13T00:14:10.923Z,41.87
2019-03-13T00:16:41.120Z,33.00
2019-03-13T00:19:11.308Z,46.57
2019-03-13T00:21:41.459Z,41.17
2019-03-13T00:24:11.467Z,47.13
2019-03-13T00:26:41.514Z,45.40
2019-03-13T00:29:11.601Z,57.57
2019-03-13T00:31:41.708Z,43.03
2019-03-13T00:34:12.071Z,47.13
2019-03-13T00:36:42.994Z,45.97
2019-03-13T00:39:12.979Z,38.40
2019-03-13T00:41:43.043Z,38.67
2019-03-13T00:44:13.023Z,47.60
2019-03-13T00:46:43.234Z,43.43
2019-03-13T00:49:13.264Z,44.00
2019-03-13T00:51:43.186Z,52.33
2019-03-13T00:54:13.293Z,44.53
2019-03-13T00:56:44.398Z,45.87
2019-03-13T00:59:14.401Z,43.53
2019-03-13T01:01:58.344Z,41.03
2019-03-13T01:04:47.547Z,38.90
2019-03-13T01:07:17.574Z,41.70
2019-03-13T01:09:47.627Z,37.20
2019-03-13T01:12:17.660Z,44.03
2019-03-13T01:14:48.029Z,43.53
2019-03-13T01:17:18.149Z,36.40
2019-03-13T01:19:48.350Z,46.13
2019-03-13T01:22:18.600Z,39.50
2019-03-13T01:24:48.621Z,40.63
2019-03-13T01:27:18.561Z,44.17
2019-03-13T01:29:48.750Z,42.03
2019-03-13T01:32:37.794Z,44.07
2019-03-13T01:35:27.106Z,43.23
2019-03-13T01:37:57.094Z,51.17
2019-03-13T01:40:29.050Z,43.20
2019-03-13T01:42:59.071Z,36.57
2019-03-13T01:45:29.827Z,41.80
2019-03-13T01:47:59.811Z,45.93
2019-03-13T01:50:29.859Z,47.13
2019-03-13T01:52:59.970Z,48.17
2019-03-13T01:55:30.290Z,42.63
2019-03-13T01:58:00.209Z,49.57
2019-03-13T02:00:30.425Z,46.50
2019-03-13T02:03:00.391Z,56.20
2019-03-13T02:05:30.327Z,47.83
2019-03-13T02:08:00.262Z,49.43
2019-03-13T02:10:30.212Z,47.77
2019-03-13T02:13:00.305Z,46.13
2019-03-13T02:15:30.425Z,52.00
2019-03-13T02:18:00.394Z,45.90
2019-03-13T02:20:30.371Z,42.63
2019-03-13T02:23:00.620Z,45.87
2019-03-13T02:25:30.644Z,47.57
2019-03-13T02:28:00.818Z,45.90
2019-03-13T02:30:31.542Z,46.20
2019-03-13T02:33:02.430Z,51.50
2019-03-13T02:35:32.789Z,49.33
2019-03-13T02:38:05.686Z,48.43
2019-03-13T02:40:37.196Z,49.23
2019-03-13T02:43:07.247Z,47.33
2019-03-13T02:45:37.310Z,47.80
2019-03-13T02:48:07.291Z,50.87
2019-03-13T02:50:37.212Z,43.90
2019-03-13T02:53:07.364Z,44.10
2019-03-13T02:55:37.299Z,47.30
2019-03-13T02:58:07.356Z,52.07
2019-03-13T03:00:48.829Z,55.10
2019-03-13T03:06:21.554Z,51.67
2019-03-13T03:08:51.671Z,52.40
2019-03-13T03:11:21.701Z,46.83
2019-03-13T03:13:52.022Z,45.43
2019-03-13T03:16:22.165Z,45.40
2019-03-13T03:18:52.493Z,47.93
2019-03-13T03:21:22.597Z,47.33
2019-03-13T03:23:52.663Z,40.57
2019-03-13T03:26:22.680Z,45.90
2019-03-13T03:28:52.745Z,42.97
2019-03-13T03:31:22.852Z,50.53
2019-03-13T03:34:12.113Z,42.40
2019-03-13T03:36:42.145Z,45.00
2019-03-13T03:39:12.210Z,47.37
2019-03-13T03:41:42.618Z,47.87
2019-03-13T03:44:12.803Z,47.93
2019-03-13T03:46:42.797Z,45.07
2019-03-13T03:49:12.818Z,39.20
2019-03-13T03:51:42.973Z,47.47
2019-03-13T03:54:12.983Z,47.40
2019-03-13T03:56:43.108Z,43.03
2019-03-13T03:59:13.229Z,45.73
2019-03-13T04:01:43.551Z,45.27
2019-03-13T04:04:13.636Z,39.27
2019-03-13T04:06:43.638Z,44.87
2019-03-13T04:09:13.778Z,40.23
2019-03-13T04:11:44.009Z,41.97
2019-03-13T04:14:14.126Z,44.20
2019-03-13T04:16:46.174Z,45.43
2019-03-13T04:19:16.251Z,37.00
2019-03-13T04:21:46.617Z,37.67
2019-03-13T04:24:16.937Z,37.80
2019-03-13T04:26:46.986Z,43.97
2019-03-13T04:29:17.039Z,36.03
2019-03-13T04:31:47.213Z,46.10
2019-03-13T04:34:17.202Z,37.37
2019-03-13T04:36:47.908Z,39.80
2019-03-13T04:39:20.490Z,33.27
2019-03-13T04:41:50.665Z,32.20
2019-03-13T04:44:22.307Z,33.17
2019-03-13T04:46:52.319Z,31.90
2019-03-13T04:49:22.844Z,39.00
2019-03-13T04:51:53.058Z,35.70
2019-03-13T04:54:23.095Z,34.23
2019-03-13T04:56:53.077Z,25.00
2019-03-13T04:59:23.055Z,28.10
2019-03-13T05:01:53.071Z,29.53
2019-03-13T05:04:23.128Z,26.90
2019-03-13T05:06:53.190Z,26.83
2019-03-13T05:09:35.885Z,29.87
2019-03-13T05:12:06.144Z,33.47
2019-03-13T05:14:36.262Z,32.57
2019-03-13T05:17:06.250Z,31.60
2019-03-13T05:19:36.229Z,40.23
2019-03-13T05:22:06.331Z,34.37
2019-03-13T05:24:36.437Z,28.13
2019-03-13T05:27:06.636Z,24.93
2019-03-13T05:29:36.633Z,29.37
2019-03-13T05:32:08.117Z,27.10
2019-03-13T05:34:38.298Z,26.10
2019-03-13T05:37:08.417Z,21.53
2019-03-13T05:39:38.448Z,20.87
2019-03-13T05:42:08.436Z,24.20
2019-03-13T05:44:38.588Z,23.50
2019-03-13T05:47:08.801Z,32.10
2019-03-13T05:49:38.994Z,23.60
2019-03-13T05:52:09.150Z,23.37
2019-03-13T05:54:39.112Z,22.57
2019-03-13T05:57:10.330Z,21.17
2019-03-13T05:59:40.338Z,24.47
2019-03-13T06:02:10.445Z,22.40
2019-03-13T06:04:40.596Z,26.30
2019-03-13T06:07:10.879Z,22.30
2019-03-13T06:09:40.841Z,27.37
2019-03-13T06:12:11.374Z,24.03
2019-03-13T06:14:41.629Z,34.00
2019-03-13T06:17:11.597Z,22.25
2019-03-13T06:19:41.814Z,25.37
2019-03-13T06:22:11.814Z,23.47
2019-03-13T06:24:42.121Z,28.17
2019-03-13T06:27:12.231Z,29.83
2019-03-13T06:29:42.490Z,23.92
2019-03-13T06:32:12.503Z,29.30
2019-03-13T06:34:44.325Z,22.17
2019-03-13T06:37:14.384Z,23.80
2019-03-13T06:39:44.507Z,22.07
2019-03-13T06:42:16.475Z,26.73
2019-03-13T06:44:46.622Z,21.20
2019-03-13T06:47:16.686Z,28.13
2019-03-13T06:49:46.798Z,21.20
2019-03-13T06:52:16.855Z,22.52
2019-03-13T06:54:51.545Z,22.30
2019-03-13T06:57:21.919Z,20.92
2019-03-13T07:00:11.161Z,24.25
2019-03-13T07:02:50.267Z,21.57
2019-03-13T07:05:39.363Z,24.57
2019-03-13T07:08:17.379Z,20.48
2019-03-13T07:11:01.920Z,27.57
2019-03-13T07:13:46.245Z,20.37
2019-03-13T07:16:23.199Z,27.30
2019-03-13T07:19:13.583Z,21.42
2019-03-13T07:22:02.685Z,24.12
2019-03-13T07:24:42.780Z,19.90
2019-03-13T07:27:27.845Z,19.95
2019-03-13T07:30:04.789Z,16.85
2019-03-13T07:32:52.053Z,23.07
2019-03-13T07:35:41.775Z,18.87
2019-03-13T07:38:30.897Z,21.97
2019-03-13T07:41:20.019Z,31.40
2019-03-13T07:44:09.225Z,25.60
2019-03-13T07:46:58.820Z,24.32
2019-03-13T07:49:44.312Z,18.40
2019-03-13T07:52:33.601Z,22.07
2019-03-13T07:55:16.594Z,20.93
2019-03-13T07:58:03.539Z,22.30
2019-03-13T08:00:53.571Z,20.03
2019-03-13T08:03:43.007Z,17.60
2019-03-13T08:06:27.770Z,22.45
2019-03-13T08:09:16.904Z,22.00
2019-03-13T08:12:07.312Z,26.55
2019-03-13T08:14:55.359Z,21.37
2019-03-13T08:17:38.984Z,21.40
2019-03-13T08:20:28.844Z,17.57
2019-03-13T08:23:18.203Z,18.73
2019-03-13T08:26:07.354Z,31.68
2019-03-13T08:28:48.491Z,21.68
2019-03-13T08:31:38.377Z,28.07
2019-03-13T08:34:27.416Z,24.92
2019-03-13T08:37:17.132Z,17.57
2019-03-13T08:39:54.450Z,21.60
2019-03-13T08:42:44.612Z,21.05
2019-03-13T08:45:45.209Z,21.20
2019-03-13T08:48:23.113Z,22.02
2019-03-13T08:51:11.258Z,31.25
2019-03-13T08:53:56.051Z,26.35
2019-03-13T08:56:30.138Z,20.45
2019-03-13T08:59:13.596Z,21.15
2019-03-13T09:01:50.038Z,12.40
2019-03-13T09:04:42.104Z,30.82
2019-03-13T09:07:31.078Z,19.57
2019-03-13T09:10:08.934Z,18.87
2019-03-13T09:13:01.297Z,22.95
2019-03-13T09:15:48.786Z,16.82
2019-03-13T09:18:30.294Z,18.50
2019-03-13T09:21:19.342Z,16.85
2019-03-13T09:24:08.550Z,19.97
2019-03-13T09:26:50.837Z,12.55
2019-03-13T09:29:37.272Z,17.52
2019-03-13T09:32:28.172Z,15.00
2019-03-13T09:35:36.427Z,22.70
2019-03-13T09:38:14.783Z,19.55
2019-03-13T09:41:04.061Z,17.15
2019-03-13T09:43:53.461Z,24.55
2019-03-13T09:46:39.060Z,19.35
2019-03-13T09:49:28.172Z,15.35
2019-03-13T09:52:17.262Z,18.07
2019-03-13T09:55:06.283Z,37.73
2019-03-13T09:57:55.504Z,31.20
2019-03-13T10:00:45.096Z,21.25
2019-03-13T10:03:34.201Z,14.73
2019-03-13T10:06:15.960Z,16.25
2019-03-13T10:09:05.003Z,15.20
2019-03-13T10:11:55.949Z,12.13
2019-03-13T10:14:32.118Z,30.30
2019-03-13T10:17:11.422Z,15.33
2019-03-13T10:19:49.460Z,12.20
2019-03-13T10:22:38.595Z,14.38
2019-03-13T10:25:17.361Z,14.80
2019-03-13T10:27:56.640Z,18.27
2019-03-13T10:30:36.721Z,16.52
2019-03-13T10:33:16.469Z,22.22
2019-03-13T10:36:06.825Z,16.07
2019-03-13T10:38:55.917Z,16.20
2019-03-13T10:41:34.745Z,19.27
2019-03-13T10:44:13.848Z,17.40
2019-03-13T10:47:03.150Z,20.27
2019-03-13T10:49:42.276Z,18.10
2019-03-13T10:52:18.031Z,20.17
2019-03-13T10:55:02.792Z,21.43
2019-03-13T10:57:52.083Z,25.55
2019-03-13T11:00:32.231Z,19.20
2019-03-13T11:03:21.346Z,20.87
2019-03-13T11:06:06.950Z,20.23
2019-03-13T11:08:47.732Z,22.98
2019-03-13T11:11:35.286Z,22.17
2019-03-13T11:14:19.659Z,20.25
2019-03-13T11:17:08.768Z,26.77
2019-03-13T11:19:57.943Z,21.40
2019-03-13T11:22:47.267Z,20.77
2019-03-13T11:25:23.448Z,24.40
2019-03-13T11:28:02.863Z,20.23
2019-03-13T11:30:52.352Z,19.75
2019-03-13T11:34:14.075Z,20.32
2019-03-13T11:37:02.147Z,18.55
2019-03-13T11:39:51.670Z,17.50
2019-03-13T11:42:28.115Z,27.70
2019-03-13T11:45:18.311Z,23.92
2019-03-13T11:48:00.500Z,22.93
2019-03-13T11:50:43.579Z,22.80
2019-03-13T11:53:28.373Z,15.65
2019-03-13T11:56:16.667Z,22.40
2019-03-13T11:59:05.091Z,27.93
2019-03-13T12:01:49.836Z,20.65
2019-03-13T12:04:40.098Z,24.47
2019-03-13T12:07:29.450Z,23.38
2019-03-13T12:10:18.619Z,26.00
2019-03-13T12:13:26.794Z,24.03
2019-03-13T12:16:01.520Z,11.18
2019-03-13T12:18:44.196Z,14.20
2019-03-13T12:21:24.590Z,17.27
2019-03-13T12:24:14.723Z,21.40
2019-03-13T12:27:02.186Z,17.45
2019-03-13T12:29:51.490Z,15.40
2019-03-13T12:32:29.149Z,18.90
2019-03-13T12:35:18.366Z,22.10
2019-03-13T12:38:01.260Z,20.57
2019-03-13T12:40:44.529Z,16.52
2019-03-13T12:43:33.756Z,19.85
2019-03-13T12:46:23.113Z,18.30
2019-03-13T12:49:12.203Z,15.68
2019-03-13T12:52:01.405Z,19.75
2019-03-13T12:54:50.600Z,20.30
2019-03-13T12:57:35.153Z,20.67
2019-03-13T13:00:27.714Z,15.13
2019-03-13T13:03:12.433Z,11.80
2019-03-13T13:06:03.300Z,18.95
2019-03-13T13:08:52.331Z,11.85
2019-03-13T13:11:41.438Z,16.85
2019-03-13T13:14:28.553Z,13.18
2019-03-13T13:17:17.667Z,14.33
2019-03-13T13:19:47.803Z,17.12
2019-03-13T13:22:18.069Z,15.10
2019-03-13T13:24:48.453Z,19.40
2019-03-13T13:27:18.630Z,16.05
2019-03-13T13:29:48.764Z,16.50
2019-03-13T13:32:18.925Z,16.05
2019-03-13T13:34:51.515Z,20.92
2019-03-13T13:37:21.679Z,16.70
2019-03-13T13:39:51.907Z,14.20
2019-03-13T13:42:22.097Z,12.37
2019-03-13T13:44:52.271Z,14.30
2019-03-13T13:47:22.552Z,13.65
2019-03-13T13:49:59.696Z,12.50
2019-03-13T13:52:25.553Z,14.00
2019-03-13T13:54:55.680Z,12.40
2019-03-13T13:57:37.610Z,10.25
2019-03-13T14:00:08.172Z,11.35
2019-03-13T14:02:38.351Z,11.48
2019-03-13T14:05:08.616Z,11.48
2019-03-13T14:07:38.662Z,10.30
2019-03-13T14:10:09.241Z,12.33
2019-03-13T14:12:39.382Z,12.50
2019-03-13T14:15:09.724Z,11.83
2019-03-13T14:17:40.078Z,10.18
2019-03-13T14:20:10.482Z,8.20
2019-03-13T14:22:40.833Z,7.12
2019-03-13T14:25:11.069Z,7.83
2019-03-13T14:27:41.194Z,5.87
2019-03-13T14:30:12.762Z,9.55
2019-03-13T14:32:43.059Z,7.47
2019-03-13T14:35:13.242Z,9.33
2019-03-13T14:37:43.807Z,7.37
2019-03-13T14:40:14.530Z,7.58
2019-03-13T14:42:44.796Z,8.78
2019-03-13T14:45:15.328Z,7.25
2019-03-13T14:47:48.691Z,8.25
2019-03-13T14:50:18.971Z,11.35
2019-03-13T14:52:49.228Z,9.75
2019-03-13T14:55:19.759Z,12.10
2019-03-13T14:57:49.928Z,14.13
2019-03-13T15:00:20.324Z,11.03
2019-03-13T15:02:52.283Z,11.15
2019-03-13T15:05:22.423Z,11.22
2019-03-13T15:07:52.717Z,14.23
2019-03-13T15:10:23.554Z,7.75
2019-03-13T15:12:54.358Z,10.23
2019-03-13T15:15:25.644Z,8.50
2019-03-13T15:17:55.879Z,8.95
2019-03-13T15:20:26.142Z,13.53
2019-03-13T15:22:56.423Z,12.68
2019-03-13T15:25:26.612Z,10.30
2019-03-13T15:27:57.051Z,9.93
2019-03-13T15:30:27.344Z,8.30
2019-03-13T15:32:57.578Z,9.08
2019-03-13T15:35:30.421Z,10.20
2019-03-13T15:38:00.592Z,6.80
2019-03-13T15:40:31.456Z,13.25
2019-03-13T15:43:01.800Z,10.55
2019-03-13T15:45:32.055Z,7.90
2019-03-13T15:48:02.355Z,11.88
2019-03-13T15:50:32.760Z,11.30
2019-03-13T15:53:02.848Z,11.40
2019-03-13T15:55:33.264Z,14.35
2019-03-13T15:58:03.439Z,10.58
2019-03-13T16:00:33.596Z,11.65
2019-03-13T16:03:03.830Z,13.35
2019-03-13T16:05:34.062Z,12.47
2019-03-13T16:08:04.200Z,17.15
2019-03-13T16:10:35.412Z,12.73
2019-03-13T16:13:06.132Z,14.25
2019-03-13T16:15:38.302Z,11.28
2019-03-13T16:18:11.389Z,12.00
2019-03-13T16:20:42.627Z,12.37
2019-03-13T16:23:17.299Z,20.77
2019-03-13T16:25:47.769Z,45.33
2019-03-13T16:28:18.114Z,31.82
2019-03-13T16:31:11.475Z,38.50
2019-03-13T16:33:53.605Z,32.70
2019-03-13T16:36:27.358Z,36.30
2019-03-13T16:39:06.559Z,36.70
2019-03-13T16:41:46.798Z,32.95
2019-03-13T16:44:24.622Z,32.17
2019-03-13T16:46:59.583Z,20.55
2019-03-13T16:49:30.834Z,31.60
2019-03-13T16:52:04.568Z,32.67
2019-03-13T16:54:38.630Z,41.85
2019-03-13T16:57:09.964Z,52.60
2019-03-13T16:59:42.028Z,56.10
2019-03-13T17:02:21.265Z,58.68
2019-03-13T17:04:58.517Z,104.12
2019-03-13T17:07:42.361Z,68.10
2019-03-13T17:10:25.875Z,83.37
2019-03-13T17:13:17.594Z,71.02
2019-03-13T17:15:57.528Z,72.65
2019-03-13T17:18:31.472Z,65.32
2019-03-13T17:21:11.358Z,52.20
2019-03-13T17:23:43.677Z,45.17
2019-03-13T17:26:15.837Z,49.45
2019-03-13T17:28:50.497Z,45.63
2019-03-13T17:31:22.567Z,48.20
2019-03-13T17:33:55.126Z,45.10
2019-03-13T17:36:26.389Z,53.98
2019-03-13T17:39:01.952Z,59.27
2019-03-13T17:41:43.677Z,57.78
2019-03-13T17:44:22.516Z,49.83
2019-03-13T17:46:56.060Z,50.52
2019-03-13T17:49:32.054Z,48.80
2019-03-13T17:52:05.617Z,34.95
2019-03-13T17:54:37.556Z,38.25
2019-03-13T17:57:09.614Z,37.53
2019-03-13T17:59:40.543Z,42.55
2019-03-13T18:02:12.851Z,35.75
2019-03-13T18:04:47.632Z,40.03
2019-03-13T18:07:19.765Z,48.35
2019-03-13T18:09:51.387Z,52.10
2019-03-13T18:12:23.506Z,45.48
2019-03-13T18:14:54.461Z,34.43
2019-03-13T18:17:26.443Z,43.68
2019-03-13T18:19:56.776Z,41.33
2019-03-13T18:22:31.507Z,44.03
2019-03-13T18:25:02.959Z,40.40
2019-03-13T18:27:33.304Z,54.43
2019-03-13T18:30:03.665Z,50.25
2019-03-13T18:32:41.746Z,45.12
2019-03-13T18:35:07.548Z,43.20
2019-03-13T18:37:37.969Z,49.07
2019-03-13T18:40:15.657Z,51.53
2019-03-13T18:42:49.342Z,59.17
2019-03-13T18:45:22.837Z,54.10
2019-03-13T18:47:54.912Z,52.70
2019-03-13T18:50:25.478Z,63.57
2019-03-13T18:52:55.756Z,67.63
2019-03-13T18:55:29.182Z,85.77
2019-03-13T18:57:59.887Z,80.07
2019-03-13T19:00:30.720Z,84.87
2019-03-13T19:03:02.200Z,84.35
2019-03-13T19:05:33.560Z,82.60
2019-03-13T19:08:13.792Z,72.53
2019-03-13T19:10:44.504Z,60.90
2019-03-13T19:13:14.830Z,63.70
2019-03-13T19:15:48.048Z,57.88
2019-03-13T19:18:18.462Z,51.15
2019-03-13T19:20:48.768Z,45.25
2019-03-13T19:23:22.234Z,51.20
2019-03-13T19:25:52.410Z,52.53
2019-03-13T19:28:22.848Z,47.33
2019-03-13T19:30:54.538Z,43.03
2019-03-13T19:33:24.961Z,40.95
2019-03-13T19:35:56.539Z,36.63
2019-03-13T19:38:26.848Z,38.02
2019-03-13T19:40:58.291Z,41.87
2019-03-13T19:43:29.020Z,45.10
2019-03-13T19:46:01.892Z,44.75
2019-03-13T19:48:34.873Z,49.65
2019-03-13T19:51:10.947Z,44.67
2019-03-13T19:53:42.249Z,46.15
2019-03-13T19:56:17.899Z,50.00
2019-03-13T19:58:49.243Z,47.53
2019-03-13T20:01:19.641Z,42.90
2019-03-13T20:03:55.125Z,43.80
2019-03-13T20:06:21.783Z,39.87
2019-03-13T20:08:53.798Z,44.53
2019-03-13T20:11:25.119Z,44.23
2019-03-13T20:13:56.670Z,43.58
2019-03-13T20:16:26.768Z,41.55
2019-03-13T20:18:58.025Z,42.97
2019-03-13T20:21:31.019Z,40.40
2019-03-13T20:24:03.376Z,42.00
2019-03-13T20:26:33.479Z,40.20
2019-03-13T20:29:04.289Z,45.17
2019-03-13T20:31:53.668Z,40.70
2019-03-13T20:34:24.186Z,44.70
2019-03-13T20:36:54.747Z,44.42
2019-03-13T20:39:25.177Z,44.27
2019-03-13T20:41:55.500Z,39.20
2019-03-13T20:44:29.236Z,41.65
2019-03-13T20:47:02.642Z,38.00
2019-03-13T20:49:35.281Z,38.50
2019-03-13T20:52:05.627Z,44.67
2019-03-13T20:54:38.246Z,34.95
2019-03-13T20:57:08.442Z,39.25
2019-03-13T20:59:38.900Z,49.75
2019-03-13T21:02:12.029Z,40.13
2019-03-13T21:04:43.373Z,46.45
2019-03-13T21:07:13.899Z,45.75
2019-03-13T21:09:44.302Z,37.28
2019-03-13T21:12:14.718Z,38.80
2019-03-13T21:14:47.334Z,46.95
2019-03-13T21:17:20.794Z,38.20
2019-03-13T21:19:52.097Z,43.73
2019-03-13T21:22:22.371Z,47.47
2019-03-13T21:24:52.748Z,39.03
2019-03-13T21:27:22.800Z,41.58
2019-03-13T21:29:53.077Z,44.50
2019-03-13T21:32:23.294Z,43.40
2019-03-13T21:34:53.497Z,42.53
2019-03-13T21:37:23.647Z,41.20
2019-03-13T21:39:53.890Z,37.78
2019-03-13T21:42:25.033Z,45.60
2019-03-13T21:44:56.224Z,42.73
2019-03-13T21:47:26.433Z,40.60
2019-03-13T21:49:56.639Z,40.28
2019-03-13T21:52:26.756Z,39.67
2019-03-13T21:54:57.950Z,40.93
2019-03-13T21:57:29.297Z,51.65
2019-03-13T21:59:59.790Z,43.93
2019-03-13T22:02:33.920Z,45.80
2019-03-13T22:05:03.398Z,43.25
2019-03-13T22:07:33.488Z,38.03
2019-03-13T22:10:03.896Z,42.27
2019-03-13T22:12:33.917Z,43.97
2019-03-13T22:15:04.137Z,43.00
2019-03-13T22:17:35.397Z,38.20
2019-03-13T22:20:06.158Z,42.50
2019-03-13T22:22:36.338Z,46.23
2019-03-13T22:25:06.814Z,51.65
2019-03-13T22:27:36.878Z,53.77
2019-03-13T22:30:09.269Z,42.98
2019-03-13T22:32:39.350Z,49.25
2019-03-13T22:35:10.418Z,39.90
2019-03-13T22:37:40.690Z,42.87
2019-03-13T22:40:13.390Z,42.93
2019-03-13T22:42:43.518Z,37.17
2019-03-13T22:45:14.940Z,37.57
2019-03-13T22:47:45.044Z,40.98
2019-03-13T22:50:17.842Z,43.00
2019-03-13T22:52:48.076Z,44.30
2019-03-13T22:55:18.435Z,41.42
2019-03-13T22:57:48.753Z,50.07
2019-03-13T23:00:51.256Z,45.00
2019-03-13T23:03:23.446Z,39.85
2019-03-13T23:05:54.122Z,39.92
2019-03-13T23:08:25.972Z,42.30
2019-03-13T23:10:59.693Z,42.85
2019-03-13T23:13:29.774Z,51.93
2019-03-13T23:15:59.986Z,48.70
2019-03-13T23:18:29.974Z,43.00
2019-03-13T23:21:00.113Z,49.53
2019-03-13T23:23:30.396Z,47.60
2019-03-13T23:26:00.474Z,43.83
2019-03-13T23:28:30.543Z,47.53
2019-03-13T23:31:00.653Z,50.77
2019-03-13T23:33:30.960Z,42.50
2019-03-13T23:36:01.153Z,48.77
2019-03-13T23:38:31.455Z,42.67
2019-03-13T23:41:02.931Z,40.35
2019-03-13T23:43:33.035Z,52.05
2019-03-13T23:46:03.215Z,53.70
2019-03-13T23:48:33.254Z,43.20
2019-03-13T23:51:03.361Z,45.33
2019-03-13T23:53:33.516Z,39.70
2019-03-13T23:56:03.678Z,42.10
2019-03-13T23:58:33.730Z,47.87
